Time;durP1;ratioP1;P1;durP2;ratioP2;P2;SDS_P1;SDS_P2;PMS_P1;PMS_P2;Temp;Humidity;BMP_temperature;BMP_pressure;BME280_temperature;BME280_humidity;BME280_pressure;Samples;Min_cycle;Max_cycle;Signal;HPM_P1;HPM_P2
2022/09/09 00:02:19;;;;;;;10.65;6.45;;;14.30;99.90;;;;;;5034904;28;20092;-67
2022/09/09 00:05:09;;;;;;;12.15;7.70;;;14.20;99.90;;;;;;4999076;28;20136;-68
2022/09/09 00:07:45;;;;;;;9.60;7.18;;;14.10;99.90;;;;;;5021110;28;20073;-68
2022/09/09 00:10:31;;;;;;;13.38;6.78;;;14.20;99.90;;;;;;5035150;28;20058;-67
2022/09/09 00:13:19;;;;;;;11.02;7.22;;;14.10;99.90;;;;;;5024944;28;20033;-67
2022/09/09 00:15:58;;;;;;;11.75;7.10;;;14.30;99.90;;;;;;5034952;28;20041;-67
2022/09/09 00:18:33;;;;;;;12.43;7.38;;;14.20;99.90;;;;;;5035283;28;20056;-67
2022/09/09 00:21:07;;;;;;;11.40;6.82;;;14.10;99.90;;;;;;5017203;28;20479;-68
2022/09/09 00:23:38;;;;;;;10.20;7.10;;;14.30;99.90;;;;;;5017432;28;20554;-67
2022/09/09 00:26:34;;;;;;;9.32;7.18;;;14.20;99.90;;;;;;5034975;28;20042;-67
2022/09/09 00:29:35;;;;;;;11.45;6.80;;;14.00;99.90;;;;;;5017271;28;20045;-67
2022/09/09 00:32:12;;;;;;;12.02;6.80;;;14.30;99.90;;;;;;4986471;28;20053;-68
2022/09/09 00:34:44;;;;;;;10.82;7.22;;;14.30;99.90;;;;;;5031838;28;20443;-67
2022/09/09 00:37:10;;;;;;;11.27;7.40;;;14.20;99.90;;;;;;5017065;28;20049;-67
2022/09/09 00:39:43;;;;;;;9.95;6.88;;;14.20;99.90;;;;;;5034675;28;20047;-67
2022/09/09 00:42:15;;;;;;;13.30;7.72;;;14.40;99.90;;;;;;5016986;28;20049;-67
2022/09/09 00:45:09;;;;;;;9.93;7.28;;;14.30;99.90;;;;;;5016792;28;20044;-67
2022/09/09 00:47:44;;;;;;;10.38;6.82;;;14.40;99.90;;;;;;5034622;28;20522;-67
2022/09/09 00:50:35;;;;;;;12.68;7.60;;;14.30;99.90;;;;;;5016552;28;20052;-67
2022/09/09 00:53:24;;;;;;;10.48;6.78;;;14.20;99.90;;;;;;5017096;28;20060;-67
2022/09/09 00:56:13;;;;;;;7.10;6.15;;;14.20;99.90;;;;;;5016958;28;20056;-68
2022/09/09 00:58:38;;;;;;;9.38;7.18;;;14.20;99.90;;;;;;5016555;28;20057;-67
2022/09/09 01:01:08;;;;;;;11.90;7.47;;;14.20;99.90;;;;;;5034599;28;20395;-67
2022/09/09 01:03:47;;;;;;;10.25;7.70;;;14.10;99.90;;;;;;5016854;28;20403;-68
2022/09/09 01:06:39;;;;;;;11.27;8.38;;;14.10;99.90;;;;;;5034375;28;20091;-67
2022/09/09 01:09:26;;;;;;;13.70;8.25;;;14.30;99.90;;;;;;5033299;28;20102;-67
2022/09/09 01:12:15;;;;;;;11.02;7.47;;;14.40;99.90;;;;;;5016368;28;20049;-67
2022/09/09 01:15:11;;;;;;;9.20;7.75;;;14.40;99.90;;;;;;5034228;28;20050;-68
2022/09/09 01:18:05;;;;;;;15.52;8.75;;;14.30;99.90;;;;;;5016171;28;20053;-67
2022/09/09 01:21:08;;;;;;;14.30;8.50;;;14.30;99.90;;;;;;5034151;28;20080;-67
2022/09/09 01:24:15;;;;;;;15.65;9.60;;;14.30;99.90;;;;;;5016285;28;20100;-66
2022/09/09 01:26:45;;;;;;;11.50;8.50;;;14.30;99.90;;;;;;5033184;28;20487;-67
2022/09/09 01:29:19;;;;;;;18.70;9.40;;;14.50;99.90;;;;;;5016577;28;20052;-67
2022/09/09 01:32:21;;;;;;;13.43;9.00;;;14.30;99.90;;;;;;5015986;28;20041;-67
2022/09/09 01:34:46;;;;;;;15.95;9.23;;;14.40;99.90;;;;;;5016071;28;20088;-67
2022/09/09 01:37:13;;;;;;;14.48;9.48;;;14.40;99.90;;;;;;5034096;28;20507;-67
2022/09/09 01:39:42;;;;;;;12.52;9.30;;;14.50;99.90;;;;;;5033983;28;20079;-66
2022/09/09 01:42:10;;;;;;;12.65;9.32;;;14.40;99.90;;;;;;5033686;28;20041;-67
2022/09/09 01:44:37;;;;;;;18.75;9.43;;;14.30;99.90;;;;;;5015686;28;20083;-67
2022/09/09 01:47:04;;;;;;;13.60;9.60;;;14.50;99.90;;;;;;5015814;28;20091;-67
2022/09/09 01:49:29;;;;;;;14.23;9.52;;;14.40;99.90;;;;;;5033751;28;20037;-67
2022/09/09 01:51:56;;;;;;;13.23;9.82;;;14.50;99.90;;;;;;4999393;28;20112;-67
2022/09/09 01:54:25;;;;;;;15.02;9.52;;;14.40;99.90;;;;;;5015816;28;20049;-67
2022/09/09 01:56:58;;;;;;;18.08;10.70;;;14.40;99.90;;;;;;5033300;28;20041;-66
2022/09/09 01:59:57;;;;;;;14.57;10.32;;;14.50;99.90;;;;;;5015827;28;20041;-67
2022/09/09 02:02:37;;;;;;;11.60;10.10;;;14.40;99.90;;;;;;5015713;28;20045;-67
2022/09/09 02:05:35;;;;;;;15.02;10.02;;;14.40;99.90;;;;;;5033389;28;20088;-67
2022/09/09 02:08:31;;;;;;;13.55;10.15;;;14.30;99.90;;;;;;4983978;28;20136;-67
2022/09/09 02:11:05;;;;;;;18.02;11.18;;;14.30;99.90;;;;;;5033129;28;20533;-67
2022/09/09 02:13:34;;;;;;;18.35;10.48;;;14.30;99.90;;;;;;5015596;28;20052;-67
2022/09/09 02:16:03;;;;;;;19.77;10.90;;;14.30;99.90;;;;;;5032991;28;20099;-67
2022/09/09 02:18:39;;;;;;;13.75;10.65;;;14.50;99.90;;;;;;5015422;28;20041;-67
2022/09/09 02:21:06;;;;;;;14.98;10.90;;;14.60;99.90;;;;;;5015146;28;20677;-67
2022/09/09 02:23:33;;;;;;;14.63;10.40;;;14.40;99.90;;;;;;5033057;28;20042;-67
2022/09/09 02:26:00;;;;;;;12.07;10.25;;;14.30;99.90;;;;;;5032854;28;20390;-67
2022/09/09 02:28:30;;;;;;;17.35;11.13;;;14.50;99.90;;;;;;5032859;28;20092;-67
2022/09/09 02:30:56;;;;;;;19.35;9.70;;;14.50;99.90;;;;;;5033087;28;20041;-67
2022/09/09 02:33:30;;;;;;;16.40;10.02;;;14.30;99.90;;;;;;5015283;28;20049;-67
2022/09/09 02:36:01;;;;;;;14.73;10.25;;;14.40;99.90;;;;;;5015209;28;20041;-66
2022/09/09 02:38:29;;;;;;;13.57;9.43;;;14.50;99.90;;;;;;5033095;28;20053;-67
2022/09/09 02:40:54;;;;;;;14.38;8.73;;;14.50;99.90;;;;;;5032708;28;20090;-67
2022/09/09 02:43:20;;;;;;;12.35;8.48;;;14.50;99.90;;;;;;5032685;28;20038;-67
2022/09/09 02:46:26;;;;;;;14.18;8.73;;;14.50;99.90;;;;;;5032997;28;20038;-67
2022/09/09 02:49:03;;;;;;;12.43;8.07;;;14.50;99.90;;;;;;4999075;28;20621;-67
2022/09/09 02:51:57;;;;;;;14.38;10.45;;;14.50;99.90;;;;;;5032426;28;20487;-67
2022/09/09 02:54:35;;;;;;;12.50;8.60;;;14.50;99.90;;;;;;5015055;28;20051;-67
2022/09/09 02:57:23;;;;;;;13.85;8.75;;;14.70;99.90;;;;;;4998028;28;20115;-65
2022/09/09 02:59:50;;;;;;;15.20;8.75;;;14.70;99.90;;;;;;5009853;28;20499;-67
2022/09/09 03:02:15;;;;;;;13.35;8.77;;;14.60;99.90;;;;;;5032635;28;20037;-67
2022/09/09 03:04:44;;;;;;;10.90;7.90;;;14.70;99.90;;;;;;5014985;28;20072;-67
2022/09/09 03:07:10;;;;;;;13.18;8.75;;;14.80;99.90;;;;;;5032596;28;20530;-67
2022/09/09 03:09:35;;;;;;;15.00;8.82;;;14.70;99.90;;;;;;5032380;28;20511;-67
2022/09/09 03:12:02;;;;;;;15.98;9.10;;;14.40;99.90;;;;;;5032341;28;20046;-67
2022/09/09 03:14:27;;;;;;;11.38;7.78;;;14.50;99.90;;;;;;5032571;28;20407;-67
2022/09/09 03:16:53;;;;;;;15.00;8.55;;;14.50;99.90;;;;;;5032468;28;20037;-67
2022/09/09 03:19:20;;;;;;;15.45;9.00;;;14.60;99.90;;;;;;5032560;28;20107;-67
2022/09/09 03:21:46;;;;;;;12.88;8.43;;;14.50;99.90;;;;;;5032503;28;20040;-67
2022/09/09 03:24:13;;;;;;;12.73;8.48;;;14.60;99.90;;;;;;5032385;28;20077;-67
2022/09/09 03:26:40;;;;;;;13.43;9.48;;;14.60;99.90;;;;;;5032327;28;20495;-67
2022/09/09 03:29:07;;;;;;;15.18;9.40;;;14.60;99.90;;;;;;5014684;28;20045;-67
2022/09/09 03:31:36;;;;;;;14.07;9.70;;;14.50;99.90;;;;;;5014688;28;20506;-67
2022/09/09 03:34:02;;;;;;;14.30;9.75;;;14.50;99.90;;;;;;5014968;28;20111;-68
2022/09/09 03:36:28;;;;;;;17.65;10.10;;;14.50;99.90;;;;;;5032508;28;20072;-67
2022/09/09 03:38:54;;;;;;;12.90;9.73;;;14.50;99.90;;;;;;5032285;28;20470;-68
2022/09/09 03:41:24;;;;;;;15.25;10.15;;;14.60;99.90;;;;;;5032357;28;20083;-67
2022/09/09 03:43:53;;;;;;;14.35;9.73;;;14.50;99.90;;;;;;5032155;28;20427;-67
2022/09/09 03:46:20;;;;;;;13.30;10.05;;;14.70;99.90;;;;;;5014456;28;20472;-67
2022/09/09 03:48:46;;;;;;;16.42;10.82;;;14.70;99.90;;;;;;5014604;28;20483;-67
2022/09/09 03:51:12;;;;;;;16.85;10.35;;;;;;;;;;5035512;28;20033;-66
2022/09/09 03:53:38;;;;;;;14.90;10.27;;;14.40;99.90;;;;;;5001090;28;20056;-67
2022/09/09 03:56:06;;;;;;;16.05;10.25;;;14.70;99.90;;;;;;5027965;28;20038;-67
2022/09/09 03:58:32;;;;;;;13.43;10.38;;;14.50;99.90;;;;;;5017902;28;20046;-67
2022/09/09 04:01:01;;;;;;;13.80;10.00;;;14.50;99.90;;;;;;5017859;28;20120;-67
2022/09/09 04:03:27;;;;;;;14.65;10.38;;;14.70;99.90;;;;;;5035301;28;20056;-67
2022/09/09 04:05:54;;;;;;;15.10;9.52;;;14.50;99.90;;;;;;5017732;28;20124;-67
2022/09/09 04:08:20;;;;;;;13.73;8.93;;;14.50;99.90;;;;;;5017469;28;20045;-70
2022/09/09 04:10:47;;;;;;;15.75;10.05;;;14.50;99.90;;;;;;5035412;28;20037;-67
2022/09/09 04:13:15;;;;;;;14.38;9.45;;;14.50;99.90;;;;;;5035658;28;20041;-67
2022/09/09 04:15:41;;;;;;;17.50;8.75;;;14.80;99.90;;;;;;5017845;28;20053;-67
2022/09/09 04:18:06;;;;;;;13.32;9.38;;;14.60;99.90;;;;;;5035275;28;20042;-68
2022/09/09 04:20:32;;;;;;;13.40;8.77;;;14.50;99.90;;;;;;5017559;28;20045;-67
2022/09/09 04:22:58;;;;;;;12.38;8.65;;;14.60;99.90;;;;;;5017168;28;20487;-68
2022/09/09 04:25:24;;;;;;;10.82;8.23;;;14.60;99.90;;;;;;5035385;28;20045;-67
2022/09/09 04:27:57;;;;;;;12.27;8.70;;;14.70;99.90;;;;;;5034988;28;20394;-67
2022/09/09 04:30:23;;;;;;;11.45;7.57;;;14.70;99.90;;;;;;5035343;28;20201;-68
2022/09/09 04:32:49;;;;;;;13.52;8.65;;;14.50;99.90;;;;;;5035206;28;20045;-67
2022/09/09 04:35:14;;;;;;;14.07;8.65;;;14.50;99.90;;;;;;5017531;28;20033;-67
2022/09/09 04:37:40;;;;;;;15.18;8.98;;;14.60;99.90;;;;;;5034900;28;20037;-67
2022/09/09 04:40:09;;;;;;;15.30;9.18;;;14.60;99.90;;;;;;5017160;28;20041;-67
2022/09/09 04:42:35;;;;;;;12.57;9.18;;;14.80;99.90;;;;;;5035110;28;20045;-67
2022/09/09 04:45:01;;;;;;;15.07;8.65;;;14.60;99.90;;;;;;5016984;28;20038;-67
2022/09/09 04:47:27;;;;;;;13.70;8.35;;;14.50;99.90;;;;;;5016991;28;20096;-66
2022/09/09 04:49:54;;;;;;;14.93;9.40;;;14.60;99.90;;;;;;5034665;28;20038;-67
2022/09/09 04:52:20;;;;;;;15.98;9.15;;;14.50;99.90;;;;;;5034702;28;20065;-67
2022/09/09 04:54:45;;;;;;;14.57;8.30;;;14.40;99.90;;;;;;5016726;28;20076;-67
2022/09/09 04:57:11;;;;;;;14.00;8.85;;;14.60;99.90;;;;;;5034670;28;20091;-67
2022/09/09 04:59:37;;;;;;;13.18;9.05;;;14.60;99.90;;;;;;5034788;28;20049;-67
2022/09/09 05:02:03;;;;;;;15.93;9.20;;;14.50;99.90;;;;;;5015580;28;20048;-67
2022/09/09 05:04:29;;;;;;;15.98;10.02;;;14.40;99.90;;;;;;5016693;28;20400;-67
2022/09/09 05:06:55;;;;;;;16.63;9.82;;;14.30;99.90;;;;;;5034315;28;20031;-67
2022/09/09 05:09:21;;;;;;;14.82;10.05;;;14.60;99.90;;;;;;5034230;28;20130;-68
2022/09/09 05:11:46;;;;;;;16.98;10.95;;;14.50;99.90;;;;;;5016635;28;20511;-68
2022/09/09 05:14:12;;;;;;;20.75;11.80;;;14.30;99.90;;;;;;5034508;28;20030;-68
2022/09/09 05:16:37;;;;;;;16.23;11.27;;;14.40;99.90;;;;;;5034387;28;20048;-67
2022/09/09 05:19:03;;;;;;;18.98;11.50;;;14.40;99.90;;;;;;5033958;28;20041;-67
2022/09/09 05:21:31;;;;;;;19.48;12.43;;;14.50;99.90;;;;;;5034095;28;20122;-68
2022/09/09 05:23:57;;;;;;;17.23;11.45;;;14.40;99.90;;;;;;5016140;28;20049;-66
2022/09/09 05:26:23;;;;;;;19.15;11.73;;;14.40;99.90;;;;;;5016266;28;20045;-67
2022/09/09 05:28:49;;;;;;;17.27;11.25;;;14.30;99.90;;;;;;5034135;28;20045;-67
2022/09/09 05:31:16;;;;;;;18.92;11.82;;;14.20;99.90;;;;;;5033847;28;20048;-67
2022/09/09 05:33:45;;;;;;;17.30;11.00;;;14.40;99.90;;;;;;5016421;28;20091;-68
2022/09/09 05:36:17;;;;;;;19.27;12.95;;;14.40;99.90;;;;;;5033832;28;20052;-67
2022/09/09 05:38:43;;;;;;;18.95;11.50;;;14.30;99.90;;;;;;5033528;28;20172;-67
2022/09/09 05:41:15;;;;;;;16.50;11.35;;;14.30;99.90;;;;;;5016000;28;20041;-67
2022/09/09 05:43:42;;;;;;;16.20;10.93;;;14.40;99.90;;;;;;5033752;28;20037;-68
2022/09/09 05:46:12;;;;;;;19.77;11.68;;;14.40;99.90;;;;;;5033480;28;20491;-67
2022/09/09 05:48:42;;;;;;;18.95;11.85;;;14.50;99.90;;;;;;5033191;28;20591;-67
2022/09/09 05:51:12;;;;;;;16.08;10.50;;;14.40;99.90;;;;;;5015906;28;20396;-66
2022/09/09 05:53:38;;;;;;;12.68;9.88;;;14.40;99.90;;;;;;5011024;28;20045;-67
2022/09/09 05:56:16;;;;;;;17.98;10.27;;;14.40;99.90;;;;;;5033325;28;20068;-67
2022/09/09 05:58:43;;;;;;;15.88;9.90;;;14.30;99.90;;;;;;5014127;28;20042;-67
2022/09/09 06:01:10;;;;;;;14.60;9.52;;;14.40;99.90;;;;;;5032447;28;20530;-68
2022/09/09 06:03:37;;;;;;;18.02;9.77;;;14.40;99.90;;;;;;5022718;28;20450;-66
2022/09/09 06:06:05;;;;;;;15.50;10.50;;;14.40;99.90;;;;;;5028056;28;21136;-67
2022/09/09 06:08:38;;;;;;;14.20;9.35;;;14.50;99.90;;;;;;5012742;28;20045;-67
2022/09/09 06:11:10;;;;;;;14.30;10.02;;;14.40;99.90;;;;;;5013011;28;20492;-66
2022/09/09 06:13:39;;;;;;;14.40;9.38;;;14.40;99.90;;;;;;5031870;28;20064;-67
2022/09/09 06:16:16;;;;;;;13.15;9.57;;;14.40;99.90;;;;;;5014931;28;20072;-66
2022/09/09 06:18:43;;;;;;;14.45;9.02;;;14.30;99.90;;;;;;5015244;28;20499;-67
2022/09/09 06:21:16;;;;;;;12.73;9.25;;;14.40;99.90;;;;;;5031324;28;20099;-67
2022/09/09 06:23:42;;;;;;;19.60;9.68;;;14.50;99.90;;;;;;5014135;28;20038;-67
2022/09/09 06:26:19;;;;;;;16.13;10.02;;;14.40;99.90;;;;;;5014638;28;20055;-67
2022/09/09 06:28:45;;;;;;;14.23;10.20;;;14.30;99.90;;;;;;5014202;28;20410;-67
2022/09/09 06:31:13;;;;;;;14.02;8.93;;;14.40;99.90;;;;;;5032167;28;20038;-67
2022/09/09 06:33:40;;;;;;;11.23;8.95;;;14.30;99.90;;;;;;5014016;28;20041;-66
2022/09/09 06:36:10;;;;;;;13.35;8.90;;;14.40;99.90;;;;;;5031592;28;20120;-67
2022/09/09 06:38:36;;;;;;;14.43;9.23;;;14.40;99.90;;;;;;5031839;28;20041;-68
2022/09/09 06:41:02;;;;;;;18.13;9.23;;;14.50;99.90;;;;;;5014720;28;20045;-67
2022/09/09 06:43:28;;;;;;;14.32;9.73;;;14.40;99.90;;;;;;5014819;28;20041;-67
2022/09/09 06:45:59;;;;;;;13.13;9.18;;;14.50;99.90;;;;;;5032404;28;20097;-67
2022/09/09 06:48:30;;;;;;;17.60;9.65;;;14.40;99.90;;;;;;5031897;28;20045;-67
2022/09/09 06:51:02;;;;;;;12.70;9.70;;;14.40;99.90;;;;;;5013833;28;20436;-67
2022/09/09 06:53:28;;;;;;;16.48;9.23;;;14.50;99.90;;;;;;5013521;28;20130;-67
2022/09/09 06:55:54;;;;;;;13.90;9.18;;;14.50;99.90;;;;;;5032677;28;20503;-67
2022/09/09 06:58:21;;;;;;;12.80;9.10;;;14.50;99.90;;;;;;5032722;28;20041;-67
2022/09/09 07:00:47;;;;;;;14.88;9.48;;;14.60;99.90;;;;;;5032390;28;20041;-66
2022/09/09 07:03:13;;;;;;;16.15;10.35;;;14.60;99.90;;;;;;5014819;28;20454;-67
2022/09/09 07:05:38;;;;;;;18.63;10.57;;;14.50;99.90;;;;;;5032527;28;20037;-67
2022/09/09 07:08:05;;;;;;;15.55;9.45;;;14.60;99.90;;;;;;5015067;28;20403;-67
2022/09/09 07:10:30;;;;;;;14.73;9.82;;;14.70;99.90;;;;;;5014045;28;20050;-67
2022/09/09 07:12:56;;;;;;;12.80;8.98;;;14.80;99.90;;;;;;5015073;28;20041;-67
2022/09/09 07:15:22;;;;;;;12.05;8.35;;;;;;;;;;5032084;28;20069;-66
2022/09/09 07:17:48;;;;;;;17.80;8.55;;;14.80;99.90;;;;;;5014167;28;20056;-67
2022/09/09 07:20:15;;;;;;;18.05;8.73;;;15.00;99.90;;;;;;4994764;28;20037;-65
2022/09/09 07:22:41;;;;;;;12.52;8.48;;;14.90;99.90;;;;;;5022687;28;20030;-65
2022/09/09 07:25:07;;;;;;;14.23;8.75;;;14.90;99.90;;;;;;5032801;28;20175;-65
2022/09/09 07:27:33;;;;;;;15.63;9.10;;;14.90;99.90;;;;;;5015479;28;20041;-65
2022/09/09 07:29:58;;;;;;;13.98;8.27;;;15.00;99.90;;;;;;5032352;28;20504;-66
2022/09/09 07:32:25;;;;;;;12.80;8.35;;;15.00;99.90;;;;;;5035892;28;20045;-68
2022/09/09 07:34:51;;;;;;;14.18;9.00;;;15.10;99.90;;;;;;5017611;28;20041;-68
2022/09/09 07:37:17;;;;;;;12.38;8.40;;;15.10;99.90;;;;;;5034842;28;20099;-67
2022/09/09 07:39:43;;;;;;;12.63;8.23;;;15.00;99.90;;;;;;5017823;28;20073;-68
2022/09/09 07:42:11;;;;;;;11.23;8.60;;;15.50;99.90;;;;;;5018009;28;20050;-68
2022/09/09 07:44:39;;;;;;;15.68;9.02;;;15.60;99.90;;;;;;5035592;28;20120;-67
2022/09/09 07:47:05;;;;;;;15.85;8.13;;;15.80;99.90;;;;;;5034642;28;20035;-67
2022/09/09 07:49:31;;;;;;;15.52;8.52;;;16.10;99.90;;;;;;5035991;28;20038;-67
2022/09/09 07:51:57;;;;;;;10.68;7.30;;;16.00;99.90;;;;;;5015970;28;20045;-67
2022/09/09 07:54:23;;;;;;;10.75;7.60;;;16.30;99.90;;;;;;5034086;28;20037;-67
2022/09/09 07:56:50;;;;;;;9.00;7.05;;;16.30;99.90;;;;;;5034446;28;20033;-67
2022/09/09 07:59:16;;;;;;;13.82;6.75;;;16.50;99.90;;;;;;5035862;28;20472;-67
2022/09/09 08:01:54;;;;;;;11.98;6.82;;;16.50;99.90;;;;;;5035395;28;20415;-67
2022/09/09 08:04:21;;;;;;;11.75;6.65;;;16.60;99.90;;;;;;5035529;28;20534;-67
2022/09/09 08:06:54;;;;;;;14.00;6.75;;;16.50;99.90;;;;;;5017777;28;20068;-67
2022/09/09 08:09:20;;;;;;;10.13;6.43;;;16.60;99.90;;;;;;5035408;28;20042;-68
2022/09/09 08:11:46;;;;;;;13.82;6.18;;;16.50;99.90;;;;;;5035129;28;20041;-66
2022/09/09 08:14:13;;;;;;;11.18;6.18;;;16.60;99.90;;;;;;5035304;28;20065;-67
2022/09/09 08:16:41;;;;;;;13.02;6.85;;;16.60;99.90;;;;;;5035614;28;20048;-67
2022/09/09 08:19:07;;;;;;;11.02;6.55;;;16.70;99.90;;;;;;5035225;28;20041;-67
2022/09/09 08:21:36;;;;;;;11.80;5.68;;;16.70;99.90;;;;;;5017167;28;20602;-66
2022/09/09 08:24:02;;;;;;;13.82;6.28;;;16.70;99.90;;;;;;5035114;28;20517;-67
2022/09/09 08:26:31;;;;;;;8.52;5.57;;;16.70;99.90;;;;;;5001143;28;20041;-67
2022/09/09 08:28:59;;;;;;;14.07;6.15;;;16.90;99.90;;;;;;5035298;28;20053;-67
2022/09/09 08:31:30;;;;;;;14.65;5.85;;;17.00;99.90;;;;;;5035058;28;20395;-67
2022/09/09 08:33:59;;;;;;;10.80;5.97;;;17.20;99.90;;;;;;5017332;28;20134;-67
2022/09/09 08:36:28;;;;;;;12.88;5.57;;;17.20;99.90;;;;;;5017012;28;20048;-68
2022/09/09 08:38:56;;;;;;;8.27;5.80;;;17.20;99.90;;;;;;5035246;28;20049;-67
2022/09/09 08:42:00;;;;;;;9.55;5.28;;;17.20;99.90;;;;;;5034849;28;20048;-67
2022/09/09 08:44:31;;;;;;;9.13;5.10;;;17.30;99.90;;;;;;5034748;28;20517;-66
2022/09/09 08:47:26;;;;;;;16.10;5.15;;;17.30;99.90;;;;;;5034758;28;20046;-67
2022/09/09 08:50:13;;;;;;;10.43;5.10;;;17.30;99.90;;;;;;5016996;28;20034;-67
2022/09/09 08:53:12;;;;;;;11.77;5.25;;;17.40;99.90;;;;;;5035004;28;20037;-67
2022/09/09 08:55:41;;;;;;;11.48;4.43;;;17.50;99.90;;;;;;5016880;28;20049;-67
2022/09/09 08:58:19;;;;;;;13.73;4.43;;;17.60;99.90;;;;;;5016811;28;20068;-67
2022/09/09 09:01:19;;;;;;;14.15;4.55;;;17.30;99.90;;;;;;5034876;28;20041;-67
2022/09/09 09:04:03;;;;;;;13.48;4.60;;;17.60;99.90;;;;;;5016967;28;20060;-66
2022/09/09 09:06:36;;;;;;;14.33;5.67;;;17.40;99.90;;;;;;5034363;28;20510;-67
2022/09/09 09:09:16;;;;;;;9.70;4.43;;;17.90;99.90;;;;;;5016562;28;20056;-68
2022/09/09 09:12:01;;;;;;;12.57;5.10;;;17.70;99.90;;;;;;5016501;28;20120;-67
2022/09/09 09:14:34;;;;;;;11.93;4.28;;;17.60;99.90;;;;;;5034491;28;20195;-67
2022/09/09 09:17:33;;;;;;;13.88;4.80;;;17.50;99.90;;;;;;5034164;28;20037;-67
2022/09/09 09:19:59;;;;;;;12.73;4.63;;;17.70;99.90;;;;;;5001513;28;20049;-67
2022/09/09 09:22:50;;;;;;;13.93;5.07;;;17.50;99.90;;;;;;5033843;28;20515;-67
2022/09/09 09:25:31;;;;;;;7.70;3.88;;;17.50;99.90;;;;;;5034273;28;20048;-67
2022/09/09 09:28:00;;;;;;;10.63;4.35;;;17.40;99.90;;;;;;5016305;28;20120;-67
2022/09/09 09:30:34;;;;;;;9.82;5.18;;;17.50;99.90;;;;;;5033961;28;20029;-67
2022/09/09 09:33:10;;;;;;;9.00;4.30;;;17.50;99.90;;;;;;5016008;28;20116;-67
2022/09/09 09:35:36;;;;;;;10.05;3.97;;;17.50;99.90;;;;;;5016453;28;20077;-67
2022/09/09 09:38:08;;;;;;;9.82;3.85;;;17.50;99.90;;;;;;5033947;28;20061;-67
2022/09/09 09:40:34;;;;;;;9.50;3.35;;;17.60;99.90;;;;;;5016382;28;20085;-67
2022/09/09 09:43:01;;;;;;;9.68;2.67;;;17.50;99.90;;;;;;5033792;28;20092;-67
2022/09/09 09:45:31;;;;;;;12.43;2.83;;;17.50;99.90;;;;;;5033522;28;20037;-67
2022/09/09 09:48:01;;;;;;;10.80;3.55;;;17.50;99.90;;;;;;5033127;28;20053;-67
2022/09/09 09:50:28;;;;;;;10.05;2.97;;;17.60;99.90;;;;;;5033725;28;20407;-67
2022/09/09 09:53:06;;;;;;;7.45;3.03;;;17.50;99.90;;;;;;5033522;28;20487;-67
2022/09/09 09:55:34;;;;;;;12.23;3.60;;;17.60;99.90;;;;;;5021365;28;20045;-67
2022/09/09 09:58:05;;;;;;;8.88;3.05;;;17.80;99.90;;;;;;5033563;28;20048;-67
2022/09/09 10:00:30;;;;;;;7.00;2.50;;;17.70;99.90;;;;;;5002569;28;20069;-67
2022/09/09 10:02:56;;;;;;;6.78;2.17;;;18.10;99.90;;;;;;5033351;28;20100;-67
2022/09/09 10:05:28;;;;;;;10.35;2.83;;;18.10;99.90;;;;;;5015552;28;20034;-67
2022/09/09 10:08:11;;;;;;;9.15;2.78;;;18.10;99.90;;;;;;5033352;28;20069;-67
2022/09/09 10:11:13;;;;;;;6.45;2.22;;;18.60;99.90;;;;;;5032952;28;20511;-67
2022/09/09 10:14:09;;;;;;;6.95;2.08;;;18.80;99.90;;;;;;5015550;28;20096;-67
2022/09/09 10:16:46;;;;;;;9.35;2.13;;;18.90;99.90;;;;;;5033151;28;20085;-66
2022/09/09 10:19:32;;;;;;;5.57;1.98;;;18.80;99.90;;;;;;5012022;28;20049;-67
2022/09/09 10:22:21;;;;;;;9.50;2.35;;;19.20;99.90;;;;;;5033235;28;20052;-67
2022/09/09 10:24:59;;;;;;;6.50;2.17;;;19.00;99.90;;;;;;5015358;28;20057;-67
2022/09/09 10:27:46;;;;;;;10.20;2.08;;;19.20;99.90;;;;;;5033151;28;20044;-66
2022/09/09 10:30:22;;;;;;;7.20;1.98;;;19.20;99.90;;;;;;5033108;28;20043;-67
2022/09/09 10:33:07;;;;;;;8.00;2.20;;;19.10;99.90;;;;;;5015379;28;20056;-67
2022/09/09 10:35:58;;;;;;;7.88;1.70;;;19.00;99.90;;;;;;5032810;28;20053;-67
2022/09/09 10:38:38;;;;;;;4.55;1.40;;;19.10;99.90;;;;;;5002181;28;20082;-67
2022/09/09 10:41:19;;;;;;;11.18;2.40;;;18.80;99.90;;;;;;5033033;28;20037;-66
2022/09/09 10:44:04;;;;;;;6.57;2.15;;;19.00;99.90;;;;;;5032701;28;20522;-66
2022/09/09 10:47:00;;;;;;;6.40;1.85;;;18.60;99.90;;;;;;5014971;28;20460;-67
2022/09/09 10:49:52;;;;;;;4.80;2.13;;;18.70;99.90;;;;;;5032854;28;20040;-67
2022/09/09 10:52:32;;;;;;;4.90;1.60;;;18.60;99.90;;;;;;5022058;28;20438;-66
2022/09/09 10:55:06;;;;;;;10.05;2.15;;;18.80;99.90;;;;;;5032831;28;20037;-67
2022/09/09 10:57:44;;;;;;;9.20;1.90;;;18.50;99.90;;;;;;5015166;28;20041;-67
2022/09/09 11:00:23;;;;;;;7.80;2.00;;;18.60;99.90;;;;;;5016740;28;20052;-67
2022/09/09 11:02:56;;;;;;;7.05;1.70;;;18.40;99.90;;;;;;5036630;28;20044;-67
2022/09/09 11:05:35;;;;;;;10.80;2.25;;;18.20;99.90;;;;;;5036637;28;20048;-67
2022/09/09 11:08:04;;;;;;;7.30;1.50;;;18.30;99.90;;;;;;5036768;28;20435;-67
2022/09/09 11:11:00;;;;;;;9.57;1.73;;;18.30;99.90;;;;;;5036446;28;20099;-67
2022/09/09 11:14:01;;;;;;;7.93;2.13;;;18.40;99.90;;;;;;5018754;28;20053;-67
2022/09/09 11:16:45;;;;;;;11.13;2.17;;;18.50;99.90;;;;;;5036639;28;20152;-67
2022/09/09 11:19:18;;;;;;;7.60;1.90;;;18.40;99.90;;;;;;5032930;28;20041;-67
2022/09/09 11:21:49;;;;;;;9.82;1.98;;;18.30;99.90;;;;;;5036564;28;20084;-67
2022/09/09 11:24:22;;;;;;;6.45;1.92;;;18.30;99.90;;;;;;5036138;28;20102;-66
2022/09/09 11:26:54;;;;;;;6.25;2.28;;;18.20;99.90;;;;;;5036663;28;20033;-67
2022/09/09 11:29:28;;;;;;;7.63;1.73;;;18.10;99.90;;;;;;5018798;28;20125;-67
2022/09/09 11:32:12;;;;;;;5.63;1.50;;;18.20;99.90;;;;;;5036106;28;20044;-66
2022/09/09 11:34:55;;;;;;;8.38;1.77;;;18.10;99.90;;;;;;5036470;28;20029;-67
2022/09/09 11:37:49;;;;;;;7.28;1.52;;;18.20;99.90;;;;;;5036176;28;20037;-67
2022/09/09 11:40:25;;;;;;;8.13;2.17;;;18.10;99.90;;;;;;5036261;28;20109;-65
2022/09/09 11:43:05;;;;;;;6.60;2.03;;;18.10;99.90;;;;;;4999728;28;20084;-67
2022/09/09 11:45:33;;;;;;;6.47;1.35;;;18.40;99.90;;;;;;5018541;28;20058;-67
2022/09/09 11:48:00;;;;;;;6.75;1.48;;;18.40;99.90;;;;;;5018317;28;20108;-67
2022/09/09 11:50:25;;;;;;;4.38;1.30;;;18.30;99.90;;;;;;5018418;28;20099;-67
2022/09/09 11:53:03;;;;;;;5.97;2.70;;;18.60;99.90;;;;;;5035664;28;20480;-67
2022/09/09 11:55:34;;;;;;;6.57;1.70;;;18.70;99.90;;;;;;5025740;28;20117;-67
2022/09/09 11:58:10;;;;;;;5.60;1.83;;;19.00;99.90;;;;;;5035774;28;20049;-68
2022/09/09 12:00:37;;;;;;;6.30;1.42;;;19.30;99.90;;;;;;5018074;28;20045;-67
2022/09/09 12:03:04;;;;;;;6.57;2.30;;;18.80;99.90;;;;;;5035807;28;20046;-67
2022/09/09 12:05:46;;;;;;;5.88;1.60;;;19.00;99.90;;;;;;5035681;28;20045;-67
2022/09/09 12:08:27;;;;;;;9.23;1.90;;;19.10;99.90;;;;;;5017849;28;20057;-67
2022/09/09 12:10:55;;;;;;;9.52;2.00;;;19.20;99.90;;;;;;5035291;28;20049;-67
2022/09/09 12:13:24;;;;;;;15.77;2.40;;;19.10;99.90;;;;;;5017983;28;20518;-67
2022/09/09 12:15:53;;;;;;;5.50;1.58;;;19.10;99.90;;;;;;5035485;28;20079;-67
2022/09/09 12:18:44;;;;;;;6.72;1.55;;;19.00;99.90;;;;;;5035569;28;20036;-67
2022/09/09 12:21:32;;;;;;;3.55;1.20;;;19.30;99.90;;;;;;5001224;28;20037;-67
2022/09/09 12:24:05;;;;;;;4.82;2.58;;;19.20;99.90;;;;;;5035454;28;20116;-67
2022/09/09 12:26:47;;;;;;;8.30;1.55;;;19.20;99.90;;;;;;5022151;28;20112;-67
2022/09/09 12:29:24;;;;;;;4.80;1.55;;;19.10;99.90;;;;;;5035088;28;20034;-67
2022/09/09 12:32:12;;;;;;;4.93;1.02;;;19.10;99.90;;;;;;5035177;28;20049;-67
2022/09/09 12:34:41;;;;;;;6.25;1.50;;;19.20;99.90;;;;;;5034836;28;20495;-66
2022/09/09 12:37:27;;;;;;;9.77;2.20;;;19.00;99.90;;;;;;5035306;28;20045;-67
2022/09/09 12:40:21;;;;;;;6.20;1.52;;;19.10;99.90;;;;;;5017490;28;20048;-68
2022/09/09 12:42:47;;;;;;;8.25;1.67;;;19.00;99.90;;;;;;5027360;28;20053;-67
2022/09/09 12:45:18;;;;;;;5.22;1.73;;;19.10;99.90;;;;;;5034776;28;20464;-67
2022/09/09 12:47:55;;;;;;;7.70;1.80;;;18.80;99.90;;;;;;5017191;28;20080;-67
2022/09/09 12:50:28;;;;;;;7.40;1.48;;;18.90;99.90;;;;;;5022261;28;20044;-67
2022/09/09 12:53:01;;;;;;;6.53;1.75;;;19.00;99.90;;;;;;5034753;28;20038;-67
2022/09/09 12:55:36;;;;;;;8.20;1.80;;;18.80;99.90;;;;;;5034656;28;20404;-67
2022/09/09 12:58:06;;;;;;;7.82;1.80;;;18.90;99.90;;;;;;5016870;28;20053;-66
2022/09/09 13:00:33;;;;;;;9.15;1.83;;;18.80;99.90;;;;;;5017729;28;20406;-66
2022/09/09 13:03:02;;;;;;;7.65;1.48;;;19.10;99.90;;;;;;5016565;28;20099;-67
2022/09/09 13:05:35;;;;;;;4.93;1.27;;;19.10;99.90;;;;;;5034328;28;20041;-67
2022/09/09 13:08:05;;;;;;;6.00;1.42;;;19.40;99.90;;;;;;5016799;28;20087;-67
2022/09/09 13:10:35;;;;;;;4.47;1.30;;;20.70;99.90;;;;;;5002707;28;20535;-67